sensor_id;sensor_type;location;lat;lon;timestamp;P1;durP1;ratioP1;P2;durP2;ratioP2
16822;SDS011;8528;49.976;11.858;2022-11-06T00:00:17;19.70;;;10.77;;
16822;SDS011;8528;49.976;11.858;2022-11-06T00:02:44;15.13;;;9.53;;
16822;SDS011;8528;49.976;11.858;2022-11-06T00:05:11;14.33;;;9.53;;
16822;SDS011;8528;49.976;11.858;2022-11-06T00:07:57;16.83;;;10.13;;
16822;SDS011;8528;49.976;11.858;2022-11-06T00:10:24;16.37;;;10.10;;
16822;SDS011;8528;49.976;11.858;2022-11-06T00:12:51;14.53;;;9.53;;
16822;SDS011;8528;49.976;11.858;2022-11-06T00:15:18;16.50;;;9.90;;
16822;SDS011;8528;49.976;11.858;2022-11-06T00:17:47;22.67;;;10.13;;
16822;SDS011;8528;49.976;11.858;2022-11-06T00:20:17;18.47;;;10.97;;
16822;SDS011;8528;49.976;11.858;2022-11-06T00:22:43;17.10;;;10.43;;
16822;SDS011;8528;49.976;11.858;2022-11-06T00:25:10;20.33;;;11.73;;
16822;SDS011;8528;49.976;11.858;2022-11-06T00:27:38;18.73;;;10.70;;
16822;SDS011;8528;49.976;11.858;2022-11-06T00:30:06;16.30;;;10.90;;
16822;SDS011;8528;49.976;11.858;2022-11-06T00:32:37;19.00;;;10.93;;
16822;SDS011;8528;49.976;11.858;2022-11-06T00:35:04;18.23;;;10.80;;
16822;SDS011;8528;49.976;11.858;2022-11-06T00:37:32;16.23;;;9.63;;
16822;SDS011;8528;49.976;11.858;2022-11-06T00:40:00;18.97;;;10.67;;
16822;SDS011;8528;49.976;11.858;2022-11-06T00:42:27;19.27;;;9.93;;
16822;SDS011;8528;49.976;11.858;2022-11-06T00:44:54;24.50;;;11.10;;
16822;SDS011;8528;49.976;11.858;2022-11-06T00:47:20;17.93;;;10.77;;
16822;SDS011;8528;49.976;11.858;2022-11-06T00:49:47;18.33;;;10.70;;
16822;SDS011;8528;49.976;11.858;2022-11-06T00:52:14;18.03;;;10.00;;
16822;SDS011;8528;49.976;11.858;2022-11-06T00:54:41;17.23;;;10.70;;
16822;SDS011;8528;49.976;11.858;2022-11-06T00:57:08;15.03;;;9.97;;
16822;SDS011;8528;49.976;11.858;2022-11-06T00:59:35;16.77;;;9.27;;
16822;SDS011;8528;49.976;11.858;2022-11-06T01:02:02;17.43;;;10.27;;
16822;SDS011;8528;49.976;11.858;2022-11-06T01:04:29;15.60;;;9.93;;
16822;SDS011;8528;49.976;11.858;2022-11-06T01:06:56;14.73;;;10.33;;
16822;SDS011;8528;49.976;11.858;2022-11-06T01:09:24;16.63;;;9.77;;
16822;SDS011;8528;49.976;11.858;2022-11-06T01:11:53;17.00;;;9.63;;
16822;SDS011;8528;49.976;11.858;2022-11-06T01:14:39;18.13;;;10.03;;
16822;SDS011;8528;49.976;11.858;2022-11-06T01:17:08;15.33;;;9.93;;
16822;SDS011;8528;49.976;11.858;2022-11-06T01:19:35;17.33;;;10.27;;
16822;SDS011;8528;49.976;11.858;2022-11-06T01:22:01;17.10;;;11.27;;
16822;SDS011;8528;49.976;11.858;2022-11-06T01:24:28;19.70;;;10.93;;
16822;SDS011;8528;49.976;11.858;2022-11-06T01:26:58;17.87;;;10.70;;
16822;SDS011;8528;49.976;11.858;2022-11-06T01:29:45;16.80;;;10.60;;
16822;SDS011;8528;49.976;11.858;2022-11-06T01:32:13;17.13;;;10.60;;
16822;SDS011;8528;49.976;11.858;2022-11-06T01:34:43;18.13;;;10.50;;
16822;SDS011;8528;49.976;11.858;2022-11-06T01:37:11;18.93;;;10.83;;
16822;SDS011;8528;49.976;11.858;2022-11-06T01:39:40;21.63;;;11.10;;
16822;SDS011;8528;49.976;11.858;2022-11-06T01:42:12;15.20;;;9.50;;
16822;SDS011;8528;49.976;11.858;2022-11-06T01:47:26;17.03;;;10.60;;
16822;SDS011;8528;49.976;11.858;2022-11-06T01:49:59;18.77;;;10.23;;
16822;SDS011;8528;49.976;11.858;2022-11-06T01:52:31;18.97;;;11.17;;
16822;SDS011;8528;49.976;11.858;2022-11-06T01:55:03;18.50;;;10.77;;
16822;SDS011;8528;49.976;11.858;2022-11-06T01:57:44;23.37;;;12.57;;
16822;SDS011;8528;49.976;11.858;2022-11-06T02:00:13;22.40;;;11.93;;
16822;SDS011;8528;49.976;11.858;2022-11-06T02:02:41;20.33;;;11.37;;
16822;SDS011;8528;49.976;11.858;2022-11-06T02:05:09;18.53;;;11.07;;
16822;SDS011;8528;49.976;11.858;2022-11-06T02:07:36;21.93;;;11.90;;
16822;SDS011;8528;49.976;11.858;2022-11-06T02:10:04;21.37;;;11.37;;
16822;SDS011;8528;49.976;11.858;2022-11-06T02:12:37;23.90;;;12.37;;
16822;SDS011;8528;49.976;11.858;2022-11-06T02:15:21;22.50;;;11.63;;
16822;SDS011;8528;49.976;11.858;2022-11-06T02:21:07;22.53;;;12.70;;
16822;SDS011;8528;49.976;11.858;2022-11-06T02:27:10;24.67;;;12.97;;
16822;SDS011;8528;49.976;11.858;2022-11-06T02:29:50;28.50;;;14.67;;
16822;SDS011;8528;49.976;11.858;2022-11-06T02:35:23;24.63;;;13.60;;
16822;SDS011;8528;49.976;11.858;2022-11-06T02:38:00;24.73;;;13.20;;
16822;SDS011;8528;49.976;11.858;2022-11-06T02:40:33;24.83;;;12.67;;
16822;SDS011;8528;49.976;11.858;2022-11-06T02:43:05;23.83;;;12.40;;
16822;SDS011;8528;49.976;11.858;2022-11-06T02:45:40;23.80;;;12.40;;
16822;SDS011;8528;49.976;11.858;2022-11-06T02:48:16;22.33;;;11.87;;
16822;SDS011;8528;49.976;11.858;2022-11-06T02:50:56;21.50;;;11.10;;
16822;SDS011;8528;49.976;11.858;2022-11-06T02:53:27;20.70;;;11.17;;
16822;SDS011;8528;49.976;11.858;2022-11-06T02:56:17;16.13;;;10.00;;
16822;SDS011;8528;49.976;11.858;2022-11-06T02:58:50;18.00;;;10.80;;
16822;SDS011;8528;49.976;11.858;2022-11-06T03:02:06;20.70;;;10.73;;
16822;SDS011;8528;49.976;11.858;2022-11-06T03:04:17;18.23;;;9.53;;
16822;SDS011;8528;49.976;11.858;2022-11-06T03:09:41;16.97;;;9.67;;
16822;SDS011;8528;49.976;11.858;2022-11-06T03:14:56;14.23;;;9.77;;
16822;SDS011;8528;49.976;11.858;2022-11-06T03:17:46;15.17;;;9.17;;
16822;SDS011;8528;49.976;11.858;2022-11-06T03:23:26;16.07;;;10.03;;
16822;SDS011;8528;49.976;11.858;2022-11-06T03:26:17;17.10;;;10.07;;
16822;SDS011;8528;49.976;11.858;2022-11-06T03:29:06;16.23;;;9.77;;
16822;SDS011;8528;49.976;11.858;2022-11-06T03:32:03;19.80;;;8.07;;
16822;SDS011;8528;49.976;11.858;2022-11-06T03:34:35;15.87;;;9.27;;
16822;SDS011;8528;49.976;11.858;2022-11-06T03:37:13;14.93;;;8.57;;
16822;SDS011;8528;49.976;11.858;2022-11-06T03:39:46;19.57;;;9.83;;
16822;SDS011;8528;49.976;11.858;2022-11-06T03:42:19;19.00;;;9.60;;
16822;SDS011;8528;49.976;11.858;2022-11-06T03:44:51;14.83;;;9.73;;
16822;SDS011;8528;49.976;11.858;2022-11-06T03:47:27;20.27;;;9.47;;
16822;SDS011;8528;49.976;11.858;2022-11-06T03:52:38;15.30;;;9.47;;
16822;SDS011;8528;49.976;11.858;2022-11-06T03:55:11;16.10;;;9.27;;
16822;SDS011;8528;49.976;11.858;2022-11-06T03:57:45;17.50;;;9.93;;
16822;SDS011;8528;49.976;11.858;2022-11-06T04:00:16;15.63;;;9.23;;
16822;SDS011;8528;49.976;11.858;2022-11-06T04:02:57;15.10;;;9.50;;
16822;SDS011;8528;49.976;11.858;2022-11-06T04:05:32;17.90;;;9.87;;
16822;SDS011;8528;49.976;11.858;2022-11-06T04:08:09;17.33;;;9.83;;
16822;SDS011;8528;49.976;11.858;2022-11-06T04:11:00;19.30;;;10.17;;
16822;SDS011;8528;49.976;11.858;2022-11-06T04:13:51;18.33;;;11.10;;
16822;SDS011;8528;49.976;11.858;2022-11-06T04:16:24;18.87;;;10.33;;
16822;SDS011;8528;49.976;11.858;2022-11-06T04:18:52;18.40;;;10.37;;
16822;SDS011;8528;49.976;11.858;2022-11-06T04:27:42;16.40;;;9.43;;
16822;SDS011;8528;49.976;11.858;2022-11-06T04:30:12;17.83;;;10.10;;
16822;SDS011;8528;49.976;11.858;2022-11-06T04:35:33;22.23;;;9.93;;
16822;SDS011;8528;49.976;11.858;2022-11-06T04:38:41;18.37;;;10.73;;
16822;SDS011;8528;49.976;11.858;2022-11-06T04:44:25;16.17;;;9.13;;
16822;SDS011;8528;49.976;11.858;2022-11-06T04:47:01;14.53;;;7.83;;
16822;SDS011;8528;49.976;11.858;2022-11-06T04:49:31;17.00;;;8.67;;
16822;SDS011;8528;49.976;11.858;2022-11-06T04:52:05;15.67;;;8.33;;
16822;SDS011;8528;49.976;11.858;2022-11-06T04:54:35;16.60;;;8.73;;
16822;SDS011;8528;49.976;11.858;2022-11-06T04:57:02;16.27;;;8.00;;
16822;SDS011;8528;49.976;11.858;2022-11-06T04:59:31;13.47;;;8.20;;
16822;SDS011;8528;49.976;11.858;2022-11-06T05:02:01;14.00;;;8.60;;
16822;SDS011;8528;49.976;11.858;2022-11-06T05:04:30;16.67;;;9.17;;
16822;SDS011;8528;49.976;11.858;2022-11-06T05:06:59;15.37;;;9.07;;
16822;SDS011;8528;49.976;11.858;2022-11-06T05:09:25;11.73;;;7.40;;
16822;SDS011;8528;49.976;11.858;2022-11-06T05:11:54;13.73;;;8.20;;
16822;SDS011;8528;49.976;11.858;2022-11-06T05:14:22;15.70;;;8.63;;
16822;SDS011;8528;49.976;11.858;2022-11-06T05:16:49;15.90;;;8.73;;
16822;SDS011;8528;49.976;11.858;2022-11-06T05:19:18;17.10;;;9.03;;
16822;SDS011;8528;49.976;11.858;2022-11-06T05:21:45;17.77;;;8.77;;
16822;SDS011;8528;49.976;11.858;2022-11-06T05:24:32;16.20;;;8.40;;
16822;SDS011;8528;49.976;11.858;2022-11-06T05:26:59;17.37;;;8.37;;
16822;SDS011;8528;49.976;11.858;2022-11-06T05:29:26;18.37;;;8.87;;
16822;SDS011;8528;49.976;11.858;2022-11-06T05:31:54;13.73;;;8.20;;
16822;SDS011;8528;49.976;11.858;2022-11-06T05:34:21;17.60;;;7.73;;
16822;SDS011;8528;49.976;11.858;2022-11-06T05:36:48;14.53;;;7.20;;
16822;SDS011;8528;49.976;11.858;2022-11-06T05:39:15;13.97;;;7.93;;
16822;SDS011;8528;49.976;11.858;2022-11-06T05:41:41;16.33;;;8.57;;
16822;SDS011;8528;49.976;11.858;2022-11-06T05:44:12;14.20;;;8.47;;
16822;SDS011;8528;49.976;11.858;2022-11-06T05:46:38;20.17;;;9.10;;
16822;SDS011;8528;49.976;11.858;2022-11-06T05:49:15;13.17;;;8.20;;
16822;SDS011;8528;49.976;11.858;2022-11-06T05:51:43;22.13;;;10.10;;
16822;SDS011;8528;49.976;11.858;2022-11-06T05:54:10;15.47;;;8.33;;
16822;SDS011;8528;49.976;11.858;2022-11-06T05:56:37;17.80;;;8.73;;
16822;SDS011;8528;49.976;11.858;2022-11-06T05:59:04;15.20;;;8.30;;
16822;SDS011;8528;49.976;11.858;2022-11-06T06:01:31;13.77;;;8.00;;
16822;SDS011;8528;49.976;11.858;2022-11-06T06:03:58;13.33;;;7.10;;
16822;SDS011;8528;49.976;11.858;2022-11-06T06:06:25;19.43;;;8.23;;
16822;SDS011;8528;49.976;11.858;2022-11-06T06:08:53;15.20;;;7.80;;
16822;SDS011;8528;49.976;11.858;2022-11-06T06:11:20;11.60;;;7.13;;
16822;SDS011;8528;49.976;11.858;2022-11-06T06:13:47;14.83;;;8.17;;
16822;SDS011;8528;49.976;11.858;2022-11-06T06:16:14;14.90;;;7.50;;
16822;SDS011;8528;49.976;11.858;2022-11-06T06:18:41;13.77;;;7.77;;
16822;SDS011;8528;49.976;11.858;2022-11-06T06:21:08;17.07;;;7.73;;
16822;SDS011;8528;49.976;11.858;2022-11-06T06:23:35;13.43;;;7.67;;
16822;SDS011;8528;49.976;11.858;2022-11-06T06:26:02;11.50;;;7.13;;
16822;SDS011;8528;49.976;11.858;2022-11-06T06:28:30;14.93;;;7.80;;
16822;SDS011;8528;49.976;11.858;2022-11-06T06:30:58;14.27;;;7.03;;
16822;SDS011;8528;49.976;11.858;2022-11-06T06:33:28;15.63;;;8.47;;
16822;SDS011;8528;49.976;11.858;2022-11-06T06:35:55;15.47;;;8.20;;
16822;SDS011;8528;49.976;11.858;2022-11-06T06:38:22;13.57;;;7.73;;
16822;SDS011;8528;49.976;11.858;2022-11-06T06:40:49;17.97;;;8.10;;
16822;SDS011;8528;49.976;11.858;2022-11-06T06:43:15;15.47;;;7.93;;
16822;SDS011;8528;49.976;11.858;2022-11-06T06:45:42;16.43;;;8.03;;
16822;SDS011;8528;49.976;11.858;2022-11-06T06:48:11;17.53;;;8.00;;
16822;SDS011;8528;49.976;11.858;2022-11-06T06:50:38;17.53;;;9.00;;
16822;SDS011;8528;49.976;11.858;2022-11-06T06:53:05;16.93;;;8.80;;
16822;SDS011;8528;49.976;11.858;2022-11-06T06:55:32;19.80;;;9.70;;
16822;SDS011;8528;49.976;11.858;2022-11-06T06:57:59;19.47;;;9.20;;
16822;SDS011;8528;49.976;11.858;2022-11-06T07:00:26;23.03;;;10.13;;
16822;SDS011;8528;49.976;11.858;2022-11-06T07:02:55;23.33;;;10.73;;
16822;SDS011;8528;49.976;11.858;2022-11-06T07:05:22;18.37;;;9.73;;
16822;SDS011;8528;49.976;11.858;2022-11-06T07:07:50;18.77;;;9.87;;
16822;SDS011;8528;49.976;11.858;2022-11-06T07:10:17;21.90;;;10.20;;
16822;SDS011;8528;49.976;11.858;2022-11-06T07:12:44;21.13;;;9.83;;
16822;SDS011;8528;49.976;11.858;2022-11-06T07:15:11;28.40;;;11.73;;
16822;SDS011;8528;49.976;11.858;2022-11-06T07:17:38;35.03;;;13.67;;
16822;SDS011;8528;49.976;11.858;2022-11-06T07:20:06;41.30;;;14.57;;
16822;SDS011;8528;49.976;11.858;2022-11-06T07:22:36;34.70;;;13.47;;
16822;SDS011;8528;49.976;11.858;2022-11-06T07:25:04;37.40;;;13.80;;
16822;SDS011;8528;49.976;11.858;2022-11-06T07:27:32;37.13;;;14.03;;
16822;SDS011;8528;49.976;11.858;2022-11-06T07:29:59;43.63;;;14.47;;
16822;SDS011;8528;49.976;11.858;2022-11-06T07:32:26;34.27;;;14.67;;
16822;SDS011;8528;49.976;11.858;2022-11-06T07:34:53;39.90;;;14.40;;
16822;SDS011;8528;49.976;11.858;2022-11-06T07:37:20;40.23;;;14.17;;
16822;SDS011;8528;49.976;11.858;2022-11-06T07:39:47;36.53;;;14.53;;
16822;SDS011;8528;49.976;11.858;2022-11-06T07:42:14;34.47;;;14.50;;
16822;SDS011;8528;49.976;11.858;2022-11-06T07:44:41;33.23;;;12.37;;
16822;SDS011;8528;49.976;11.858;2022-11-06T07:47:08;33.50;;;13.07;;
16822;SDS011;8528;49.976;11.858;2022-11-06T07:49:35;29.53;;;13.63;;
16822;SDS011;8528;49.976;11.858;2022-11-06T07:52:03;21.93;;;11.33;;
16822;SDS011;8528;49.976;11.858;2022-11-06T07:54:30;28.73;;;12.47;;
16822;SDS011;8528;49.976;11.858;2022-11-06T07:56:57;27.63;;;11.60;;
16822;SDS011;8528;49.976;11.858;2022-11-06T07:59:24;20.57;;;9.90;;
16822;SDS011;8528;49.976;11.858;2022-11-06T08:01:51;18.40;;;9.23;;
16822;SDS011;8528;49.976;11.858;2022-11-06T08:04:18;17.27;;;8.53;;
16822;SDS011;8528;49.976;11.858;2022-11-06T08:06:47;15.23;;;9.03;;
16822;SDS011;8528;49.976;11.858;2022-11-06T08:09:14;14.03;;;7.70;;
16822;SDS011;8528;49.976;11.858;2022-11-06T08:11:41;14.40;;;8.10;;
16822;SDS011;8528;49.976;11.858;2022-11-06T08:14:09;13.00;;;8.27;;
16822;SDS011;8528;49.976;11.858;2022-11-06T08:16:37;13.87;;;7.43;;
16822;SDS011;8528;49.976;11.858;2022-11-06T08:19:04;16.77;;;8.43;;
16822;SDS011;8528;49.976;11.858;2022-11-06T08:21:31;12.67;;;7.00;;
16822;SDS011;8528;49.976;11.858;2022-11-06T08:24:00;11.63;;;6.23;;
16822;SDS011;8528;49.976;11.858;2022-11-06T08:26:27;12.63;;;7.33;;
16822;SDS011;8528;49.976;11.858;2022-11-06T08:28:55;13.57;;;8.60;;
16822;SDS011;8528;49.976;11.858;2022-11-06T08:31:23;13.20;;;7.70;;
16822;SDS011;8528;49.976;11.858;2022-11-06T08:33:52;15.80;;;6.90;;
16822;SDS011;8528;49.976;11.858;2022-11-06T08:36:18;13.07;;;7.60;;
16822;SDS011;8528;49.976;11.858;2022-11-06T08:38:46;12.37;;;7.37;;
16822;SDS011;8528;49.976;11.858;2022-11-06T08:41:14;12.70;;;7.47;;
16822;SDS011;8528;49.976;11.858;2022-11-06T08:43:41;12.93;;;7.27;;
16822;SDS011;8528;49.976;11.858;2022-11-06T08:46:08;21.07;;;10.73;;
16822;SDS011;8528;49.976;11.858;2022-11-06T08:48:38;14.97;;;8.70;;
16822;SDS011;8528;49.976;11.858;2022-11-06T08:51:05;19.23;;;10.37;;
16822;SDS011;8528;49.976;11.858;2022-11-06T08:53:32;20.33;;;10.87;;
16822;SDS011;8528;49.976;11.858;2022-11-06T08:56:01;12.90;;;7.73;;
16822;SDS011;8528;49.976;11.858;2022-11-06T08:58:29;14.97;;;8.33;;
16822;SDS011;8528;49.976;11.858;2022-11-06T09:00:56;12.50;;;7.63;;
16822;SDS011;8528;49.976;11.858;2022-11-06T09:03:23;13.30;;;7.60;;
16822;SDS011;8528;49.976;11.858;2022-11-06T09:05:50;13.97;;;7.63;;
16822;SDS011;8528;49.976;11.858;2022-11-06T09:08:17;14.23;;;7.73;;
16822;SDS011;8528;49.976;11.858;2022-11-06T09:10:44;15.83;;;8.80;;
16822;SDS011;8528;49.976;11.858;2022-11-06T09:13:11;14.10;;;8.40;;
16822;SDS011;8528;49.976;11.858;2022-11-06T09:15:39;15.20;;;8.57;;
16822;SDS011;8528;49.976;11.858;2022-11-06T09:18:06;13.23;;;7.87;;
16822;SDS011;8528;49.976;11.858;2022-11-06T09:20:33;16.57;;;8.73;;
16822;SDS011;8528;49.976;11.858;2022-11-06T09:23:04;23.70;;;10.50;;
16822;SDS011;8528;49.976;11.858;2022-11-06T09:25:32;12.70;;;8.43;;
16822;SDS011;8528;49.976;11.858;2022-11-06T09:27:59;18.10;;;9.20;;
16822;SDS011;8528;49.976;11.858;2022-11-06T09:30:27;22.53;;;11.87;;
16822;SDS011;8528;49.976;11.858;2022-11-06T09:32:57;20.23;;;10.50;;
16822;SDS011;8528;49.976;11.858;2022-11-06T09:35:25;17.23;;;10.00;;
16822;SDS011;8528;49.976;11.858;2022-11-06T09:37:54;18.77;;;9.77;;
16822;SDS011;8528;49.976;11.858;2022-11-06T09:40:46;13.30;;;8.40;;
16822;SDS011;8528;49.976;11.858;2022-11-06T09:46:52;15.83;;;9.87;;
16822;SDS011;8528;49.976;11.858;2022-11-06T09:54:27;16.77;;;10.13;;
16822;SDS011;8528;49.976;11.858;2022-11-06T09:57:04;15.20;;;9.93;;
16822;SDS011;8528;49.976;11.858;2022-11-06T09:59:39;16.07;;;11.23;;
16822;SDS011;8528;49.976;11.858;2022-11-06T10:05:06;18.37;;;11.20;;
16822;SDS011;8528;49.976;11.858;2022-11-06T10:07:49;17.43;;;11.07;;
16822;SDS011;8528;49.976;11.858;2022-11-06T10:10:21;16.33;;;11.00;;
16822;SDS011;8528;49.976;11.858;2022-11-06T10:18:47;16.37;;;11.07;;
16822;SDS011;8528;49.976;11.858;2022-11-06T10:21:30;15.73;;;9.70;;
16822;SDS011;8528;49.976;11.858;2022-11-06T10:24:48;14.07;;;9.50;;
16822;SDS011;8528;49.976;11.858;2022-11-06T10:30:04;13.63;;;9.50;;
16822;SDS011;8528;49.976;11.858;2022-11-06T10:32:55;14.27;;;9.43;;
16822;SDS011;8528;49.976;11.858;2022-11-06T10:35:30;14.23;;;10.03;;
16822;SDS011;8528;49.976;11.858;2022-11-06T10:38:12;17.87;;;10.40;;
16822;SDS011;8528;49.976;11.858;2022-11-06T10:40:54;16.27;;;10.53;;
16822;SDS011;8528;49.976;11.858;2022-11-06T10:43:32;18.43;;;11.20;;
16822;SDS011;8528;49.976;11.858;2022-11-06T10:46:25;19.33;;;11.43;;
16822;SDS011;8528;49.976;11.858;2022-11-06T10:48:59;20.13;;;12.23;;
16822;SDS011;8528;49.976;11.858;2022-11-06T10:51:40;18.33;;;12.47;;
16822;SDS011;8528;49.976;11.858;2022-11-06T10:57:38;15.30;;;10.03;;
16822;SDS011;8528;49.976;11.858;2022-11-06T11:00:17;16.83;;;10.50;;
16822;SDS011;8528;49.976;11.858;2022-11-06T11:02:45;15.63;;;10.13;;
16822;SDS011;8528;49.976;11.858;2022-11-06T11:05:17;19.47;;;11.50;;
16822;SDS011;8528;49.976;11.858;2022-11-06T11:07:46;20.23;;;12.77;;
16822;SDS011;8528;49.976;11.858;2022-11-06T11:10:28;18.13;;;12.03;;
16822;SDS011;8528;49.976;11.858;2022-11-06T11:13:05;16.63;;;11.13;;
16822;SDS011;8528;49.976;11.858;2022-11-06T11:15:38;16.83;;;10.77;;
16822;SDS011;8528;49.976;11.858;2022-11-06T11:20:40;18.97;;;10.87;;
16822;SDS011;8528;49.976;11.858;2022-11-06T11:23:16;18.53;;;11.47;;
16822;SDS011;8528;49.976;11.858;2022-11-06T11:25:51;19.30;;;11.60;;
16822;SDS011;8528;49.976;11.858;2022-11-06T11:28:30;15.77;;;10.73;;
16822;SDS011;8528;49.976;11.858;2022-11-06T11:33:37;17.17;;;11.70;;
16822;SDS011;8528;49.976;11.858;2022-11-06T11:36:06;20.23;;;13.17;;
16822;SDS011;8528;49.976;11.858;2022-11-06T11:38:35;21.23;;;13.10;;
16822;SDS011;8528;49.976;11.858;2022-11-06T11:41:12;19.80;;;12.40;;
16822;SDS011;8528;49.976;11.858;2022-11-06T11:43:56;17.37;;;11.30;;
16822;SDS011;8528;49.976;11.858;2022-11-06T11:46:30;19.03;;;12.57;;
16822;SDS011;8528;49.976;11.858;2022-11-06T11:48:59;18.07;;;11.73;;
16822;SDS011;8528;49.976;11.858;2022-11-06T11:56:50;15.77;;;10.63;;
16822;SDS011;8528;49.976;11.858;2022-11-06T12:05:01;13.60;;;9.37;;
16822;SDS011;8528;49.976;11.858;2022-11-06T12:07:37;13.70;;;9.43;;
16822;SDS011;8528;49.976;11.858;2022-11-06T12:13:13;15.37;;;11.17;;
16822;SDS011;8528;49.976;11.858;2022-11-06T12:15:44;14.33;;;10.20;;
16822;SDS011;8528;49.976;11.858;2022-11-06T12:21:31;13.30;;;10.33;;
16822;SDS011;8528;49.976;11.858;2022-11-06T12:26:56;12.57;;;9.17;;
16822;SDS011;8528;49.976;11.858;2022-11-06T12:29:40;12.60;;;9.67;;
16822;SDS011;8528;49.976;11.858;2022-11-06T12:35:00;13.63;;;8.93;;
16822;SDS011;8528;49.976;11.858;2022-11-06T12:37:51;13.37;;;9.10;;
16822;SDS011;8528;49.976;11.858;2022-11-06T12:40:40;12.23;;;9.03;;
16822;SDS011;8528;49.976;11.858;2022-11-06T12:45:42;13.60;;;8.43;;
16822;SDS011;8528;49.976;11.858;2022-11-06T12:51:11;62.23;;;32.67;;
16822;SDS011;8528;49.976;11.858;2022-11-06T12:59:13;11.13;;;8.03;;
16822;SDS011;8528;49.976;11.858;2022-11-06T13:04:40;15.33;;;12.33;;
16822;SDS011;8528;49.976;11.858;2022-11-06T13:07:55;13.20;;;10.47;;
16822;SDS011;8528;49.976;11.858;2022-11-06T13:19:07;16.50;;;14.87;;
16822;SDS011;8528;49.976;11.858;2022-11-06T13:24:32;10.50;;;8.13;;
16822;SDS011;8528;49.976;11.858;2022-11-06T13:27:34;11.97;;;8.60;;
16822;SDS011;8528;49.976;11.858;2022-11-06T13:30:19;13.33;;;10.23;;
16822;SDS011;8528;49.976;11.858;2022-11-06T13:32:52;14.87;;;11.13;;
16822;SDS011;8528;49.976;11.858;2022-11-06T13:35:40;14.93;;;11.57;;
16822;SDS011;8528;49.976;11.858;2022-11-06T13:38:14;12.70;;;10.20;;
16822;SDS011;8528;49.976;11.858;2022-11-06T13:40:46;21.67;;;19.57;;
16822;SDS011;8528;49.976;11.858;2022-11-06T13:43:20;11.47;;;8.50;;
16822;SDS011;8528;49.976;11.858;2022-11-06T13:49:15;11.53;;;9.93;;
16822;SDS011;8528;49.976;11.858;2022-11-06T13:51:51;14.37;;;11.40;;
16822;SDS011;8528;49.976;11.858;2022-11-06T14:08:14;9.73;;;7.87;;
16822;SDS011;8528;49.976;11.858;2022-11-06T14:16:35;9.80;;;7.60;;
16822;SDS011;8528;49.976;11.858;2022-11-06T14:19:06;10.33;;;7.90;;
16822;SDS011;8528;49.976;11.858;2022-11-06T14:21:52;8.93;;;7.20;;
16822;SDS011;8528;49.976;11.858;2022-11-06T14:24:29;11.37;;;7.83;;
16822;SDS011;8528;49.976;11.858;2022-11-06T14:27:02;12.00;;;8.13;;
16822;SDS011;8528;49.976;11.858;2022-11-06T14:32:44;14.63;;;11.40;;
16822;SDS011;8528;49.976;11.858;2022-11-06T14:40:56;18.40;;;12.47;;
16822;SDS011;8528;49.976;11.858;2022-11-06T14:43:25;12.53;;;8.90;;
16822;SDS011;8528;49.976;11.858;2022-11-06T14:46:03;17.60;;;12.30;;
16822;SDS011;8528;49.976;11.858;2022-11-06T14:48:49;14.27;;;10.90;;
16822;SDS011;8528;49.976;11.858;2022-11-06T14:51:23;14.43;;;10.53;;
16822;SDS011;8528;49.976;11.858;2022-11-06T14:53:57;13.27;;;10.00;;
16822;SDS011;8528;49.976;11.858;2022-11-06T14:56:30;14.70;;;9.63;;
16822;SDS011;8528;49.976;11.858;2022-11-06T14:59:04;14.97;;;10.00;;
16822;SDS011;8528;49.976;11.858;2022-11-06T15:01:34;15.50;;;9.33;;
16822;SDS011;8528;49.976;11.858;2022-11-06T15:04:20;13.93;;;9.53;;
16822;SDS011;8528;49.976;11.858;2022-11-06T15:07:09;14.10;;;9.27;;
16822;SDS011;8528;49.976;11.858;2022-11-06T15:13:23;17.33;;;10.40;;
16822;SDS011;8528;49.976;11.858;2022-11-06T15:15:54;15.53;;;11.43;;
16822;SDS011;8528;49.976;11.858;2022-11-06T15:18:23;15.97;;;10.10;;
16822;SDS011;8528;49.976;11.858;2022-11-06T15:20:57;15.90;;;9.83;;
16822;SDS011;8528;49.976;11.858;2022-11-06T15:23:28;16.77;;;10.73;;
16822;SDS011;8528;49.976;11.858;2022-11-06T15:29:02;14.00;;;9.63;;
16822;SDS011;8528;49.976;11.858;2022-11-06T15:31:43;13.03;;;8.77;;
16822;SDS011;8528;49.976;11.858;2022-11-06T15:37:02;14.20;;;9.70;;
16822;SDS011;8528;49.976;11.858;2022-11-06T15:39:50;12.57;;;9.03;;
16822;SDS011;8528;49.976;11.858;2022-11-06T15:42:28;16.27;;;10.03;;
16822;SDS011;8528;49.976;11.858;2022-11-06T15:47:57;22.07;;;13.93;;
16822;SDS011;8528;49.976;11.858;2022-11-06T15:50:27;27.17;;;19.10;;
16822;SDS011;8528;49.976;11.858;2022-11-06T15:53:14;19.37;;;11.83;;
16822;SDS011;8528;49.976;11.858;2022-11-06T15:58:37;17.03;;;11.40;;
16822;SDS011;8528;49.976;11.858;2022-11-06T16:01:05;17.17;;;10.47;;
16822;SDS011;8528;49.976;11.858;2022-11-06T16:03:43;17.00;;;10.93;;
16822;SDS011;8528;49.976;11.858;2022-11-06T16:06:17;13.63;;;9.37;;
16822;SDS011;8528;49.976;11.858;2022-11-06T16:08:45;15.80;;;10.67;;
16822;SDS011;8528;49.976;11.858;2022-11-06T16:11:13;16.13;;;10.60;;
16822;SDS011;8528;49.976;11.858;2022-11-06T16:13:45;16.30;;;11.10;;
16822;SDS011;8528;49.976;11.858;2022-11-06T16:16:47;19.67;;;14.37;;
16822;SDS011;8528;49.976;11.858;2022-11-06T16:22:08;20.60;;;13.93;;
16822;SDS011;8528;49.976;11.858;2022-11-06T16:24:39;21.13;;;13.20;;
16822;SDS011;8528;49.976;11.858;2022-11-06T16:27:21;15.03;;;9.73;;
16822;SDS011;8528;49.976;11.858;2022-11-06T16:29:52;17.47;;;10.90;;
16822;SDS011;8528;49.976;11.858;2022-11-06T16:32:25;16.70;;;10.63;;
16822;SDS011;8528;49.976;11.858;2022-11-06T16:34:54;15.43;;;8.93;;
16822;SDS011;8528;49.976;11.858;2022-11-06T16:39:53;23.27;;;17.17;;
16822;SDS011;8528;49.976;11.858;2022-11-06T16:45:07;35.77;;;17.43;;
16822;SDS011;8528;49.976;11.858;2022-11-06T16:47:41;103.57;;;30.80;;
16822;SDS011;8528;49.976;11.858;2022-11-06T16:53:11;79.67;;;21.00;;
16822;SDS011;8528;49.976;11.858;2022-11-06T16:56:09;32.07;;;15.10;;
16822;SDS011;8528;49.976;11.858;2022-11-06T16:59:13;43.47;;;19.60;;
16822;SDS011;8528;49.976;11.858;2022-11-06T17:01:39;72.77;;;34.47;;
16822;SDS011;8528;49.976;11.858;2022-11-06T17:04:18;78.83;;;31.23;;
16822;SDS011;8528;49.976;11.858;2022-11-06T17:06:51;45.87;;;21.00;;
16822;SDS011;8528;49.976;11.858;2022-11-06T17:09:32;35.80;;;19.37;;
16822;SDS011;8528;49.976;11.858;2022-11-06T17:12:09;150.93;;;60.80;;
16822;SDS011;8528;49.976;11.858;2022-11-06T17:14:37;45.40;;;22.30;;
16822;SDS011;8528;49.976;11.858;2022-11-06T17:17:21;43.77;;;21.13;;
16822;SDS011;8528;49.976;11.858;2022-11-06T17:19:51;44.37;;;23.07;;
16822;SDS011;8528;49.976;11.858;2022-11-06T17:22:18;44.20;;;23.97;;
16822;SDS011;8528;49.976;11.858;2022-11-06T17:24:45;46.60;;;25.00;;
16822;SDS011;8528;49.976;11.858;2022-11-06T17:27:12;74.37;;;32.07;;
16822;SDS011;8528;49.976;11.858;2022-11-06T17:29:40;61.37;;;28.90;;
16822;SDS011;8528;49.976;11.858;2022-11-06T17:32:07;89.47;;;37.20;;
16822;SDS011;8528;49.976;11.858;2022-11-06T17:34:34;122.83;;;41.77;;
16822;SDS011;8528;49.976;11.858;2022-11-06T17:37:01;120.20;;;44.00;;
16822;SDS011;8528;49.976;11.858;2022-11-06T17:39:29;123.10;;;44.67;;
16822;SDS011;8528;49.976;11.858;2022-11-06T17:41:57;155.43;;;85.13;;
16822;SDS011;8528;49.976;11.858;2022-11-06T17:44:24;36.47;;;17.77;;
16822;SDS011;8528;49.976;11.858;2022-11-06T17:46:53;29.53;;;17.03;;
16822;SDS011;8528;49.976;11.858;2022-11-06T17:49:20;27.03;;;14.80;;